sensor_id;sensor_type;location;lat;lon;timestamp;temperature;humidity
15947;DHT22;8072;52.554;7.966;2023-04-25T00:01:20;7.40;99.90
15947;DHT22;8072;52.554;7.966;2023-04-25T00:03:47;7.50;99.90
15947;DHT22;8072;52.554;7.966;2023-04-25T00:06:14;7.60;99.90
15947;DHT22;8072;52.554;7.966;2023-04-25T00:08:40;7.50;99.90
15947;DHT22;8072;52.554;7.966;2023-04-25T00:11:06;7.50;99.90
15947;DHT22;8072;52.554;7.966;2023-04-25T00:13:32;7.50;99.90
15947;DHT22;8072;52.554;7.966;2023-04-25T00:15:58;7.40;99.90
15947;DHT22;8072;52.554;7.966;2023-04-25T00:18:25;7.40;99.90
15947;DHT22;8072;52.554;7.966;2023-04-25T00:20:54;7.40;99.90
15947;DHT22;8072;52.554;7.966;2023-04-25T00:23:20;7.40;99.90
15947;DHT22;8072;52.554;7.966;2023-04-25T00:25:50;7.40;99.90
15947;DHT22;8072;52.554;7.966;2023-04-25T00:28:16;7.40;99.90
15947;DHT22;8072;52.554;7.966;2023-04-25T00:30:42;7.30;99.90
15947;DHT22;8072;52.554;7.966;2023-04-25T00:33:09;7.30;99.90
15947;DHT22;8072;52.554;7.966;2023-04-25T00:35:35;7.30;99.90
15947;DHT22;8072;52.554;7.966;2023-04-25T00:38:01;7.30;99.90
15947;DHT22;8072;52.554;7.966;2023-04-25T00:40:27;7.30;99.90
15947;DHT22;8072;52.554;7.966;2023-04-25T00:42:53;7.20;99.90
15947;DHT22;8072;52.554;7.966;2023-04-25T00:45:20;7.20;99.90
15947;DHT22;8072;52.554;7.966;2023-04-25T00:47:46;7.20;99.90
15947;DHT22;8072;52.554;7.966;2023-04-25T00:50:13;7.20;99.90
15947;DHT22;8072;52.554;7.966;2023-04-25T00:52:44;7.20;99.90
15947;DHT22;8072;52.554;7.966;2023-04-25T00:55:11;7.10;99.90
15947;DHT22;8072;52.554;7.966;2023-04-25T00:57:38;7.20;99.90
15947;DHT22;8072;52.554;7.966;2023-04-25T01:00:06;7.20;99.90
15947;DHT22;8072;52.554;7.966;2023-04-25T01:02:35;7.10;99.90
15947;DHT22;8072;52.554;7.966;2023-04-25T01:05:01;7.10;99.90
15947;DHT22;8072;52.554;7.966;2023-04-25T01:07:27;7.10;99.90
15947;DHT22;8072;52.554;7.966;2023-04-25T01:09:53;7.10;99.90
15947;DHT22;8072;52.554;7.966;2023-04-25T01:12:19;7.10;99.90
15947;DHT22;8072;52.554;7.966;2023-04-25T01:14:45;7.10;99.90
15947;DHT22;8072;52.554;7.966;2023-04-25T01:17:11;7.00;99.90
15947;DHT22;8072;52.554;7.966;2023-04-25T01:19:37;7.00;99.90
15947;DHT22;8072;52.554;7.966;2023-04-25T01:22:03;7.00;99.90
15947;DHT22;8072;52.554;7.966;2023-04-25T01:24:31;6.90;99.90
15947;DHT22;8072;52.554;7.966;2023-04-25T01:26:58;6.90;99.90
15947;DHT22;8072;52.554;7.966;2023-04-25T01:29:26;6.90;99.90
15947;DHT22;8072;52.554;7.966;2023-04-25T01:31:53;6.90;99.90
15947;DHT22;8072;52.554;7.966;2023-04-25T01:34:18;6.90;99.90
15947;DHT22;8072;52.554;7.966;2023-04-25T01:36:45;6.90;99.90
15947;DHT22;8072;52.554;7.966;2023-04-25T01:39:12;6.90;99.90
15947;DHT22;8072;52.554;7.966;2023-04-25T01:41:38;6.90;99.90
15947;DHT22;8072;52.554;7.966;2023-04-25T01:44:04;6.90;99.90
15947;DHT22;8072;52.554;7.966;2023-04-25T01:46:30;6.90;99.90
15947;DHT22;8072;52.554;7.966;2023-04-25T01:48:56;6.90;99.90
15947;DHT22;8072;52.554;7.966;2023-04-25T01:51:21;6.80;99.90
15947;DHT22;8072;52.554;7.966;2023-04-25T01:53:47;6.80;99.90
15947;DHT22;8072;52.554;7.966;2023-04-25T01:56:13;6.80;99.90
15947;DHT22;8072;52.554;7.966;2023-04-25T01:58:39;6.80;99.90
15947;DHT22;8072;52.554;7.966;2023-04-25T02:01:04;6.80;99.90
15947;DHT22;8072;52.554;7.966;2023-04-25T02:03:31;6.80;99.90
15947;DHT22;8072;52.554;7.966;2023-04-25T02:05:57;6.80;99.90
15947;DHT22;8072;52.554;7.966;2023-04-25T02:08:23;6.70;99.90
15947;DHT22;8072;52.554;7.966;2023-04-25T02:10:51;6.70;99.90
15947;DHT22;8072;52.554;7.966;2023-04-25T02:13:17;6.70;99.90
15947;DHT22;8072;52.554;7.966;2023-04-25T02:15:42;6.70;99.90
15947;DHT22;8072;52.554;7.966;2023-04-25T02:18:08;6.70;99.90
15947;DHT22;8072;52.554;7.966;2023-04-25T02:20:36;6.70;99.90
15947;DHT22;8072;52.554;7.966;2023-04-25T02:23:02;6.70;99.90
15947;DHT22;8072;52.554;7.966;2023-04-25T02:25:28;6.70;99.90
15947;DHT22;8072;52.554;7.966;2023-04-25T02:27:54;6.70;99.90
15947;DHT22;8072;52.554;7.966;2023-04-25T02:30:20;6.70;99.90
15947;DHT22;8072;52.554;7.966;2023-04-25T02:32:46;6.60;99.90
15947;DHT22;8072;52.554;7.966;2023-04-25T02:35:12;6.60;99.90
15947;DHT22;8072;52.554;7.966;2023-04-25T02:37:39;6.60;99.90
15947;DHT22;8072;52.554;7.966;2023-04-25T02:40:05;6.60;99.90
15947;DHT22;8072;52.554;7.966;2023-04-25T02:42:32;6.60;99.90
15947;DHT22;8072;52.554;7.966;2023-04-25T02:44:58;6.60;99.90
15947;DHT22;8072;52.554;7.966;2023-04-25T02:47:24;6.60;99.90
15947;DHT22;8072;52.554;7.966;2023-04-25T02:49:50;6.60;99.90
15947;DHT22;8072;52.554;7.966;2023-04-25T02:52:16;6.60;99.90
15947;DHT22;8072;52.554;7.966;2023-04-25T02:54:42;6.60;99.90
15947;DHT22;8072;52.554;7.966;2023-04-25T02:57:08;6.60;99.90
15947;DHT22;8072;52.554;7.966;2023-04-25T02:59:34;6.50;99.90
15947;DHT22;8072;52.554;7.966;2023-04-25T03:02:00;6.50;99.90
15947;DHT22;8072;52.554;7.966;2023-04-25T03:04:26;6.50;99.90
15947;DHT22;8072;52.554;7.966;2023-04-25T03:06:52;6.50;99.90
15947;DHT22;8072;52.554;7.966;2023-04-25T03:09:19;6.50;99.90
15947;DHT22;8072;52.554;7.966;2023-04-25T03:11:45;6.50;99.90
15947;DHT22;8072;52.554;7.966;2023-04-25T03:14:12;6.50;99.90
15947;DHT22;8072;52.554;7.966;2023-04-25T03:16:38;6.40;99.90
15947;DHT22;8072;52.554;7.966;2023-04-25T03:19:04;6.50;99.90
15947;DHT22;8072;52.554;7.966;2023-04-25T03:21:31;6.50;99.90
15947;DHT22;8072;52.554;7.966;2023-04-25T03:23:58;6.50;99.90
15947;DHT22;8072;52.554;7.966;2023-04-25T03:26:24;6.40;99.90
15947;DHT22;8072;52.554;7.966;2023-04-25T03:28:50;6.40;99.90
15947;DHT22;8072;52.554;7.966;2023-04-25T03:31:16;6.30;99.90
15947;DHT22;8072;52.554;7.966;2023-04-25T03:33:41;6.30;99.90
15947;DHT22;8072;52.554;7.966;2023-04-25T03:36:07;6.30;99.90
15947;DHT22;8072;52.554;7.966;2023-04-25T03:38:38;6.30;99.90
15947;DHT22;8072;52.554;7.966;2023-04-25T03:41:04;6.30;99.90
15947;DHT22;8072;52.554;7.966;2023-04-25T03:43:30;6.30;99.90
15947;DHT22;8072;52.554;7.966;2023-04-25T03:45:56;6.20;99.90
15947;DHT22;8072;52.554;7.966;2023-04-25T03:48:22;6.20;99.90
15947;DHT22;8072;52.554;7.966;2023-04-25T03:50:50;6.20;99.90
15947;DHT22;8072;52.554;7.966;2023-04-25T03:53:17;6.20;99.90
15947;DHT22;8072;52.554;7.966;2023-04-25T03:55:43;6.30;99.90
15947;DHT22;8072;52.554;7.966;2023-04-25T03:58:09;6.20;99.90
15947;DHT22;8072;52.554;7.966;2023-04-25T04:00:35;6.20;99.90
15947;DHT22;8072;52.554;7.966;2023-04-25T04:03:01;6.10;99.90
15947;DHT22;8072;52.554;7.966;2023-04-25T04:05:27;6.10;99.90
15947;DHT22;8072;52.554;7.966;2023-04-25T04:07:54;6.10;99.90
15947;DHT22;8072;52.554;7.966;2023-04-25T04:10:20;6.10;99.90
15947;DHT22;8072;52.554;7.966;2023-04-25T04:12:46;6.10;99.90
15947;DHT22;8072;52.554;7.966;2023-04-25T04:15:12;6.10;99.90
15947;DHT22;8072;52.554;7.966;2023-04-25T04:17:38;6.00;99.90
15947;DHT22;8072;52.554;7.966;2023-04-25T04:20:05;6.00;99.90
15947;DHT22;8072;52.554;7.966;2023-04-25T04:22:31;6.00;99.90
15947;DHT22;8072;52.554;7.966;2023-04-25T04:24:57;6.00;99.90
15947;DHT22;8072;52.554;7.966;2023-04-25T04:27:23;6.00;99.90
15947;DHT22;8072;52.554;7.966;2023-04-25T04:29:49;6.00;99.90
15947;DHT22;8072;52.554;7.966;2023-04-25T04:32:16;6.00;99.90
15947;DHT22;8072;52.554;7.966;2023-04-25T04:34:42;6.00;99.90
15947;DHT22;8072;52.554;7.966;2023-04-25T04:37:08;6.00;99.90
15947;DHT22;8072;52.554;7.966;2023-04-25T04:39:36;6.00;99.90
15947;DHT22;8072;52.554;7.966;2023-04-25T04:42:03;6.00;99.90
15947;DHT22;8072;52.554;7.966;2023-04-25T04:44:30;6.00;99.90
15947;DHT22;8072;52.554;7.966;2023-04-25T04:46:58;6.00;99.90
15947;DHT22;8072;52.554;7.966;2023-04-25T04:49:24;5.90;99.90
15947;DHT22;8072;52.554;7.966;2023-04-25T04:51:50;6.00;99.90
15947;DHT22;8072;52.554;7.966;2023-04-25T04:54:16;6.00;99.90
15947;DHT22;8072;52.554;7.966;2023-04-25T04:56:42;6.00;99.90
15947;DHT22;8072;52.554;7.966;2023-04-25T04:59:08;6.00;99.90
15947;DHT22;8072;52.554;7.966;2023-04-25T05:01:34;6.00;99.90
15947;DHT22;8072;52.554;7.966;2023-04-25T05:04:02;6.00;99.90
15947;DHT22;8072;52.554;7.966;2023-04-25T05:06:29;6.00;99.90
15947;DHT22;8072;52.554;7.966;2023-04-25T05:08:56;6.00;99.90
15947;DHT22;8072;52.554;7.966;2023-04-25T05:11:23;6.10;99.90
15947;DHT22;8072;52.554;7.966;2023-04-25T05:13:51;6.10;99.90
15947;DHT22;8072;52.554;7.966;2023-04-25T05:16:17;6.10;99.90
15947;DHT22;8072;52.554;7.966;2023-04-25T05:18:43;6.10;99.90
15947;DHT22;8072;52.554;7.966;2023-04-25T05:21:09;6.20;99.90
15947;DHT22;8072;52.554;7.966;2023-04-25T05:23:34;6.20;99.90
15947;DHT22;8072;52.554;7.966;2023-04-25T05:26:00;6.20;99.90
15947;DHT22;8072;52.554;7.966;2023-04-25T05:28:26;6.20;99.90
15947;DHT22;8072;52.554;7.966;2023-04-25T05:30:52;6.20;99.90
15947;DHT22;8072;52.554;7.966;2023-04-25T05:33:18;6.30;99.90
15947;DHT22;8072;52.554;7.966;2023-04-25T05:35:44;6.20;99.90
15947;DHT22;8072;52.554;7.966;2023-04-25T05:38:10;6.30;99.90
15947;DHT22;8072;52.554;7.966;2023-04-25T05:40:36;6.30;99.90
15947;DHT22;8072;52.554;7.966;2023-04-25T05:43:02;6.30;99.90
15947;DHT22;8072;52.554;7.966;2023-04-25T05:45:28;6.30;99.90
15947;DHT22;8072;52.554;7.966;2023-04-25T05:47:53;6.20;99.90
15947;DHT22;8072;52.554;7.966;2023-04-25T05:50:19;6.30;99.90
15947;DHT22;8072;52.554;7.966;2023-04-25T05:52:45;6.20;99.90
15947;DHT22;8072;52.554;7.966;2023-04-25T05:55:11;6.30;99.90
15947;DHT22;8072;52.554;7.966;2023-04-25T05:57:37;6.30;99.90
15947;DHT22;8072;52.554;7.966;2023-04-25T06:00:07;6.40;99.90
15947;DHT22;8072;52.554;7.966;2023-04-25T06:02:34;6.40;99.90
15947;DHT22;8072;52.554;7.966;2023-04-25T06:05:00;6.50;99.90
15947;DHT22;8072;52.554;7.966;2023-04-25T06:07:29;6.50;99.90
15947;DHT22;8072;52.554;7.966;2023-04-25T06:09:55;6.60;99.90
15947;DHT22;8072;52.554;7.966;2023-04-25T06:12:21;6.70;99.90
15947;DHT22;8072;52.554;7.966;2023-04-25T06:14:47;6.70;99.90
15947;DHT22;8072;52.554;7.966;2023-04-25T06:17:13;6.80;99.90
15947;DHT22;8072;52.554;7.966;2023-04-25T06:19:38;6.80;99.90
15947;DHT22;8072;52.554;7.966;2023-04-25T06:22:04;6.80;99.90
15947;DHT22;8072;52.554;7.966;2023-04-25T06:24:30;6.90;99.90
15947;DHT22;8072;52.554;7.966;2023-04-25T06:26:56;6.90;99.90
15947;DHT22;8072;52.554;7.966;2023-04-25T06:29:21;7.00;99.90
15947;DHT22;8072;52.554;7.966;2023-04-25T06:31:47;6.90;99.90
15947;DHT22;8072;52.554;7.966;2023-04-25T06:34:13;7.00;99.90
15947;DHT22;8072;52.554;7.966;2023-04-25T06:36:39;6.90;99.90
15947;DHT22;8072;52.554;7.966;2023-04-25T06:39:07;6.90;99.90
15947;DHT22;8072;52.554;7.966;2023-04-25T06:41:33;6.90;99.90
15947;DHT22;8072;52.554;7.966;2023-04-25T06:43:59;6.90;99.90
15947;DHT22;8072;52.554;7.966;2023-04-25T06:46:25;6.90;99.90
15947;DHT22;8072;52.554;7.966;2023-04-25T06:48:50;7.00;99.90
15947;DHT22;8072;52.554;7.966;2023-04-25T06:51:16;7.00;99.90
15947;DHT22;8072;52.554;7.966;2023-04-25T06:53:42;7.10;99.90
15947;DHT22;8072;52.554;7.966;2023-04-25T06:56:08;7.10;99.90
15947;DHT22;8072;52.554;7.966;2023-04-25T06:58:33;7.10;99.90
15947;DHT22;8072;52.554;7.966;2023-04-25T07:00:59;7.20;99.90
15947;DHT22;8072;52.554;7.966;2023-04-25T07:03:25;7.20;99.90
15947;DHT22;8072;52.554;7.966;2023-04-25T07:05:51;7.20;99.90
15947;DHT22;8072;52.554;7.966;2023-04-25T07:08:17;7.30;99.90
15947;DHT22;8072;52.554;7.966;2023-04-25T07:10:43;7.30;99.90
15947;DHT22;8072;52.554;7.966;2023-04-25T07:13:08;7.40;99.90
15947;DHT22;8072;52.554;7.966;2023-04-25T07:15:35;7.40;99.90
15947;DHT22;8072;52.554;7.966;2023-04-25T07:18:00;7.40;99.90
15947;DHT22;8072;52.554;7.966;2023-04-25T07:20:26;7.40;99.90
15947;DHT22;8072;52.554;7.966;2023-04-25T07:22:53;7.40;99.90
15947;DHT22;8072;52.554;7.966;2023-04-25T07:25:20;7.40;99.90
15947;DHT22;8072;52.554;7.966;2023-04-25T07:27:45;7.50;99.90
15947;DHT22;8072;52.554;7.966;2023-04-25T07:30:12;7.60;99.90
15947;DHT22;8072;52.554;7.966;2023-04-25T07:32:38;7.70;99.90
15947;DHT22;8072;52.554;7.966;2023-04-25T07:35:05;7.80;99.90
15947;DHT22;8072;52.554;7.966;2023-04-25T07:37:33;7.90;99.90
15947;DHT22;8072;52.554;7.966;2023-04-25T07:39:58;7.90;99.90
15947;DHT22;8072;52.554;7.966;2023-04-25T07:42:24;8.00;99.90
15947;DHT22;8072;52.554;7.966;2023-04-25T07:44:50;8.00;99.90
15947;DHT22;8072;52.554;7.966;2023-04-25T07:47:17;7.90;99.90
15947;DHT22;8072;52.554;7.966;2023-04-25T07:49:44;7.90;99.90
15947;DHT22;8072;52.554;7.966;2023-04-25T07:52:10;7.90;99.90
15947;DHT22;8072;52.554;7.966;2023-04-25T07:54:36;7.90;99.90
15947;DHT22;8072;52.554;7.966;2023-04-25T07:57:02;7.90;99.90
15947;DHT22;8072;52.554;7.966;2023-04-25T07:59:28;7.90;99.90
15947;DHT22;8072;52.554;7.966;2023-04-25T08:01:53;7.80;99.90
15947;DHT22;8072;52.554;7.966;2023-04-25T08:04:19;7.70;99.90
15947;DHT22;8072;52.554;7.966;2023-04-25T08:06:45;7.60;99.90
15947;DHT22;8072;52.554;7.966;2023-04-25T08:09:11;7.70;99.90
15947;DHT22;8072;52.554;7.966;2023-04-25T08:11:37;7.70;99.90
15947;DHT22;8072;52.554;7.966;2023-04-25T08:14:03;7.70;99.90
15947;DHT22;8072;52.554;7.966;2023-04-25T08:16:29;7.70;99.90
15947;DHT22;8072;52.554;7.966;2023-04-25T08:18:55;7.70;99.90
15947;DHT22;8072;52.554;7.966;2023-04-25T08:21:21;7.80;99.90
15947;DHT22;8072;52.554;7.966;2023-04-25T08:23:47;7.90;99.90
15947;DHT22;8072;52.554;7.966;2023-04-25T08:26:12;8.10;99.90
15947;DHT22;8072;52.554;7.966;2023-04-25T08:28:38;8.20;99.90
15947;DHT22;8072;52.554;7.966;2023-04-25T08:31:04;8.30;99.90
15947;DHT22;8072;52.554;7.966;2023-04-25T08:33:30;8.40;99.90
15947;DHT22;8072;52.554;7.966;2023-04-25T08:35:57;8.30;99.90
15947;DHT22;8072;52.554;7.966;2023-04-25T08:38:23;8.20;99.90
15947;DHT22;8072;52.554;7.966;2023-04-25T08:40:51;8.10;99.90
15947;DHT22;8072;52.554;7.966;2023-04-25T08:43:19;8.10;99.90
15947;DHT22;8072;52.554;7.966;2023-04-25T08:45:45;8.10;99.90
15947;DHT22;8072;52.554;7.966;2023-04-25T08:48:15;8.20;99.90
15947;DHT22;8072;52.554;7.966;2023-04-25T08:50:45;8.20;99.90
15947;DHT22;8072;52.554;7.966;2023-04-25T08:53:16;8.30;99.90
15947;DHT22;8072;52.554;7.966;2023-04-25T08:55:45;8.30;99.90
15947;DHT22;8072;52.554;7.966;2023-04-25T08:58:12;8.40;99.90
15947;DHT22;8072;52.554;7.966;2023-04-25T09:00:39;8.40;99.90
15947;DHT22;8072;52.554;7.966;2023-04-25T09:03:04;8.50;99.90
15947;DHT22;8072;52.554;7.966;2023-04-25T09:05:34;8.60;99.90
15947;DHT22;8072;52.554;7.966;2023-04-25T09:08:01;8.60;99.90
15947;DHT22;8072;52.554;7.966;2023-04-25T09:10:28;8.60;99.90
15947;DHT22;8072;52.554;7.966;2023-04-25T09:13:08;8.60;99.90
15947;DHT22;8072;52.554;7.966;2023-04-25T09:15:52;8.70;99.90
15947;DHT22;8072;52.554;7.966;2023-04-25T09:18:32;8.80;99.90
15947;DHT22;8072;52.554;7.966;2023-04-25T09:21:08;9.00;99.90
15947;DHT22;8072;52.554;7.966;2023-04-25T09:23:45;9.10;99.90
15947;DHT22;8072;52.554;7.966;2023-04-25T09:26:14;9.20;99.90
15947;DHT22;8072;52.554;7.966;2023-04-25T09:28:40;9.10;99.90
15947;DHT22;8072;52.554;7.966;2023-04-25T09:31:10;9.00;99.90
15947;DHT22;8072;52.554;7.966;2023-04-25T09:33:37;8.90;99.90
15947;DHT22;8072;52.554;7.966;2023-04-25T09:36:05;8.80;99.90
15947;DHT22;8072;52.554;7.966;2023-04-25T09:38:32;8.70;99.90
15947;DHT22;8072;52.554;7.966;2023-04-25T09:40:58;8.60;99.90
15947;DHT22;8072;52.554;7.966;2023-04-25T09:43:25;8.40;99.90
15947;DHT22;8072;52.554;7.966;2023-04-25T09:45:53;8.20;99.90
15947;DHT22;8072;52.554;7.966;2023-04-25T09:48:23;8.00;99.90
15947;DHT22;8072;52.554;7.966;2023-04-25T09:53:38;7.70;99.90
15947;DHT22;8072;52.554;7.966;2023-04-25T09:56:06;7.60;99.90
15947;DHT22;8072;52.554;7.966;2023-04-25T09:58:33;7.50;99.90
15947;DHT22;8072;52.554;7.966;2023-04-25T10:01:01;7.60;99.90
15947;DHT22;8072;52.554;7.966;2023-04-25T10:03:30;7.70;99.90
15947;DHT22;8072;52.554;7.966;2023-04-25T10:05:59;7.70;99.90
15947;DHT22;8072;52.554;7.966;2023-04-25T10:08:33;7.80;99.90
15947;DHT22;8072;52.554;7.966;2023-04-25T10:11:01;8.00;99.90
15947;DHT22;8072;52.554;7.966;2023-04-25T10:13:31;8.00;99.90
15947;DHT22;8072;52.554;7.966;2023-04-25T10:16:04;8.10;99.90
15947;DHT22;8072;52.554;7.966;2023-04-25T10:18:31;8.20;99.90
15947;DHT22;8072;52.554;7.966;2023-04-25T10:21:00;8.40;99.90
15947;DHT22;8072;52.554;7.966;2023-04-25T10:23:26;8.60;99.90
15947;DHT22;8072;52.554;7.966;2023-04-25T10:25:53;8.90;99.90
15947;DHT22;8072;52.554;7.966;2023-04-25T10:28:20;9.10;99.90
15947;DHT22;8072;52.554;7.966;2023-04-25T10:31:02;9.30;99.90
15947;DHT22;8072;52.554;7.966;2023-04-25T10:33:36;9.50;99.90
15947;DHT22;8072;52.554;7.966;2023-04-25T10:36:17;9.70;99.90
15947;DHT22;8072;52.554;7.966;2023-04-25T10:38:44;9.70;99.90
15947;DHT22;8072;52.554;7.966;2023-04-25T10:41:11;9.70;99.90
15947;DHT22;8072;52.554;7.966;2023-04-25T10:43:41;9.70;99.90
15947;DHT22;8072;52.554;7.966;2023-04-25T10:46:22;9.60;99.90
15947;DHT22;8072;52.554;7.966;2023-04-25T10:49:00;9.40;99.90
15947;DHT22;8072;52.554;7.966;2023-04-25T10:51:31;9.20;99.90
15947;DHT22;8072;52.554;7.966;2023-04-25T10:54:06;9.20;99.90
15947;DHT22;8072;52.554;7.966;2023-04-25T10:59:16;9.10;99.90
15947;DHT22;8072;52.554;7.966;2023-04-25T11:09:33;9.30;99.90
15947;DHT22;8072;52.554;7.966;2023-04-25T11:11:59;9.30;99.90
15947;DHT22;8072;52.554;7.966;2023-04-25T11:14:26;9.40;99.90
15947;DHT22;8072;52.554;7.966;2023-04-25T11:16:56;9.50;99.90
15947;DHT22;8072;52.554;7.966;2023-04-25T11:19:24;9.60;99.90
15947;DHT22;8072;52.554;7.966;2023-04-25T11:21:51;9.70;99.90
15947;DHT22;8072;52.554;7.966;2023-04-25T11:24:21;10.00;99.90
15947;DHT22;8072;52.554;7.966;2023-04-25T11:26:50;10.30;99.90
15947;DHT22;8072;52.554;7.966;2023-04-25T11:29:17;10.50;99.90
15947;DHT22;8072;52.554;7.966;2023-04-25T11:31:45;10.70;99.90
15947;DHT22;8072;52.554;7.966;2023-04-25T11:34:11;10.80;99.90
15947;DHT22;8072;52.554;7.966;2023-04-25T11:36:38;10.70;99.90
15947;DHT22;8072;52.554;7.966;2023-04-25T11:39:04;10.70;99.90
15947;DHT22;8072;52.554;7.966;2023-04-25T11:41:31;10.90;99.90
15947;DHT22;8072;52.554;7.966;2023-04-25T11:43:57;11.10;99.90
15947;DHT22;8072;52.554;7.966;2023-04-25T11:46:23;11.30;99.90
15947;DHT22;8072;52.554;7.966;2023-04-25T11:48:48;11.10;99.90
15947;DHT22;8072;52.554;7.966;2023-04-25T11:51:15;11.10;99.90
15947;DHT22;8072;52.554;7.966;2023-04-25T11:53:44;11.10;99.90
15947;DHT22;8072;52.554;7.966;2023-04-25T11:56:10;11.40;99.90
15947;DHT22;8072;52.554;7.966;2023-04-25T11:59:14;11.70;99.90
15947;DHT22;8072;52.554;7.966;2023-04-25T12:01:49;11.90;99.90
15947;DHT22;8072;52.554;7.966;2023-04-25T12:04:21;12.10;99.90
15947;DHT22;8072;52.554;7.966;2023-04-25T12:06:52;12.10;99.90
15947;DHT22;8072;52.554;7.966;2023-04-25T12:09:31;12.20;99.90
15947;DHT22;8072;52.554;7.966;2023-04-25T12:11:58;12.20;99.90
15947;DHT22;8072;52.554;7.966;2023-04-25T12:14:29;11.70;99.90
15947;DHT22;8072;52.554;7.966;2023-04-25T12:16:57;10.80;99.90
15947;DHT22;8072;52.554;7.966;2023-04-25T12:19:24;10.40;99.90
15947;DHT22;8072;52.554;7.966;2023-04-25T12:21:52;9.90;99.90
15947;DHT22;8072;52.554;7.966;2023-04-25T12:24:23;9.80;99.90
15947;DHT22;8072;52.554;7.966;2023-04-25T12:27:02;9.50;99.90
15947;DHT22;8072;52.554;7.966;2023-04-25T12:29:30;9.40;99.90
15947;DHT22;8072;52.554;7.966;2023-04-25T12:31:56;9.40;99.90
15947;DHT22;8072;52.554;7.966;2023-04-25T12:34:22;9.30;99.90
15947;DHT22;8072;52.554;7.966;2023-04-25T12:36:50;9.20;99.90
15947;DHT22;8072;52.554;7.966;2023-04-25T12:41:43;9.30;99.90
15947;DHT22;8072;52.554;7.966;2023-04-25T12:44:08;9.30;99.90
15947;DHT22;8072;52.554;7.966;2023-04-25T12:46:35;9.40;99.90
15947;DHT22;8072;52.554;7.966;2023-04-25T12:49:00;9.50;99.90
15947;DHT22;8072;52.554;7.966;2023-04-25T12:51:29;9.70;99.90
15947;DHT22;8072;52.554;7.966;2023-04-25T12:53:55;10.10;99.90
15947;DHT22;8072;52.554;7.966;2023-04-25T12:56:21;10.40;99.90
15947;DHT22;8072;52.554;7.966;2023-04-25T12:58:46;10.70;99.90
15947;DHT22;8072;52.554;7.966;2023-04-25T13:01:14;11.00;99.90
15947;DHT22;8072;52.554;7.966;2023-04-25T13:03:40;11.10;99.90
15947;DHT22;8072;52.554;7.966;2023-04-25T13:06:06;11.30;99.90
15947;DHT22;8072;52.554;7.966;2023-04-25T13:08:32;11.50;99.90
15947;DHT22;8072;52.554;7.966;2023-04-25T13:10:58;11.90;99.90
15947;DHT22;8072;52.554;7.966;2023-04-25T13:13:24;11.80;99.90
15947;DHT22;8072;52.554;7.966;2023-04-25T13:15:50;11.70;99.90
15947;DHT22;8072;52.554;7.966;2023-04-25T13:18:15;11.50;99.90
15947;DHT22;8072;52.554;7.966;2023-04-25T13:20:41;11.30;99.90
15947;DHT22;8072;52.554;7.966;2023-04-25T13:23:07;11.20;99.90
15947;DHT22;8072;52.554;7.966;2023-04-25T13:25:32;11.10;99.90
15947;DHT22;8072;52.554;7.966;2023-04-25T13:27:58;10.90;99.90
15947;DHT22;8072;52.554;7.966;2023-04-25T13:30:24;10.80;99.90
15947;DHT22;8072;52.554;7.966;2023-04-25T13:32:50;10.60;99.90
15947;DHT22;8072;52.554;7.966;2023-04-25T13:35:16;10.50;99.90
15947;DHT22;8072;52.554;7.966;2023-04-25T13:37:42;10.20;99.90
15947;DHT22;8072;52.554;7.966;2023-04-25T13:40:10;10.10;99.90
15947;DHT22;8072;52.554;7.966;2023-04-25T13:42:39;9.90;99.90
15947;DHT22;8072;52.554;7.966;2023-04-25T13:45:06;9.60;99.90
15947;DHT22;8072;52.554;7.966;2023-04-25T13:47:32;9.30;99.90
15947;DHT22;8072;52.554;7.966;2023-04-25T13:49:58;9.20;99.90
15947;DHT22;8072;52.554;7.966;2023-04-25T13:52:24;9.10;99.90
15947;DHT22;8072;52.554;7.966;2023-04-25T13:54:51;9.00;99.90
15947;DHT22;8072;52.554;7.966;2023-04-25T13:57:17;8.90;99.90
15947;DHT22;8072;52.554;7.966;2023-04-25T13:59:44;8.90;99.90
15947;DHT22;8072;52.554;7.966;2023-04-25T14:02:10;8.90;99.90
15947;DHT22;8072;52.554;7.966;2023-04-25T14:04:35;8.90;99.90
15947;DHT22;8072;52.554;7.966;2023-04-25T14:07:02;8.90;99.90
15947;DHT22;8072;52.554;7.966;2023-04-25T14:09:29;9.10;99.90
15947;DHT22;8072;52.554;7.966;2023-04-25T14:11:55;9.30;99.90
15947;DHT22;8072;52.554;7.966;2023-04-25T14:14:25;9.80;99.90
15947;DHT22;8072;52.554;7.966;2023-04-25T14:16:51;10.20;99.90
15947;DHT22;8072;52.554;7.966;2023-04-25T14:19:19;10.50;99.90
15947;DHT22;8072;52.554;7.966;2023-04-25T14:21:45;10.60;99.90
15947;DHT22;8072;52.554;7.966;2023-04-25T14:24:12;10.70;99.90
15947;DHT22;8072;52.554;7.966;2023-04-25T14:26:38;10.90;99.90
15947;DHT22;8072;52.554;7.966;2023-04-25T14:29:05;11.00;99.90
15947;DHT22;8072;52.554;7.966;2023-04-25T14:31:34;10.90;99.90
15947;DHT22;8072;52.554;7.966;2023-04-25T14:34:01;10.70;99.90
15947;DHT22;8072;52.554;7.966;2023-04-25T14:36:30;10.40;99.90
15947;DHT22;8072;52.554;7.966;2023-04-25T14:38:57;10.10;99.90
15947;DHT22;8072;52.554;7.966;2023-04-25T14:41:25;9.90;99.90
15947;DHT22;8072;52.554;7.966;2023-04-25T14:43:51;9.70;99.90
15947;DHT22;8072;52.554;7.966;2023-04-25T14:46:18;9.60;99.90
15947;DHT22;8072;52.554;7.966;2023-04-25T14:48:45;9.70;99.90
15947;DHT22;8072;52.554;7.966;2023-04-25T14:51:11;9.90;99.90
15947;DHT22;8072;52.554;7.966;2023-04-25T14:53:37;10.10;99.90
15947;DHT22;8072;52.554;7.966;2023-04-25T14:56:03;10.40;99.90
15947;DHT22;8072;52.554;7.966;2023-04-25T14:58:29;10.50;99.90
15947;DHT22;8072;52.554;7.966;2023-04-25T15:00:54;10.30;99.90
15947;DHT22;8072;52.554;7.966;2023-04-25T15:03:20;10.20;99.90
15947;DHT22;8072;52.554;7.966;2023-04-25T15:05:46;10.10;99.90
15947;DHT22;8072;52.554;7.966;2023-04-25T15:08:12;10.00;99.90
15947;DHT22;8072;52.554;7.966;2023-04-25T15:10:37;9.90;99.90
15947;DHT22;8072;52.554;7.966;2023-04-25T15:13:03;9.80;99.90
15947;DHT22;8072;52.554;7.966;2023-04-25T15:15:29;9.70;99.90
15947;DHT22;8072;52.554;7.966;2023-04-25T15:17:56;9.60;99.90
15947;DHT22;8072;52.554;7.966;2023-04-25T15:20:22;9.60;99.90
15947;DHT22;8072;52.554;7.966;2023-04-25T15:22:48;9.60;99.90
15947;DHT22;8072;52.554;7.966;2023-04-25T15:25:15;9.70;99.90
15947;DHT22;8072;52.554;7.966;2023-04-25T15:27:43;9.60;99.90
15947;DHT22;8072;52.554;7.966;2023-04-25T15:30:12;9.60;99.90
15947;DHT22;8072;52.554;7.966;2023-04-25T15:32:43;9.60;99.90
15947;DHT22;8072;52.554;7.966;2023-04-25T15:35:09;9.30;99.90
15947;DHT22;8072;52.554;7.966;2023-04-25T15:37:35;9.20;99.90
15947;DHT22;8072;52.554;7.966;2023-04-25T15:40:06;9.10;99.90
15947;DHT22;8072;52.554;7.966;2023-04-25T15:42:40;9.20;99.90
15947;DHT22;8072;52.554;7.966;2023-04-25T15:45:08;9.50;99.90
15947;DHT22;8072;52.554;7.966;2023-04-25T15:47:35;9.70;99.90
15947;DHT22;8072;52.554;7.966;2023-04-25T15:50:02;9.90;99.90
15947;DHT22;8072;52.554;7.966;2023-04-25T15:52:29;9.90;99.90
15947;DHT22;8072;52.554;7.966;2023-04-25T15:54:55;9.90;99.90
15947;DHT22;8072;52.554;7.966;2023-04-25T15:57:21;9.80;99.90
15947;DHT22;8072;52.554;7.966;2023-04-25T15:59:48;9.60;99.90
15947;DHT22;8072;52.554;7.966;2023-04-25T16:02:15;9.60;99.90
15947;DHT22;8072;52.554;7.966;2023-04-25T16:04:41;9.50;99.90
15947;DHT22;8072;52.554;7.966;2023-04-25T16:07:07;9.30;99.90
15947;DHT22;8072;52.554;7.966;2023-04-25T16:09:34;9.00;99.90
15947;DHT22;8072;52.554;7.966;2023-04-25T16:12:00;8.80;99.90
15947;DHT22;8072;52.554;7.966;2023-04-25T16:14:26;8.70;99.90